createdAt,value
2019-05-07T00:00:27.890Z,8.45
2019-05-07T00:02:56.197Z,8.43
2019-05-07T00:05:24.516Z,8.43
2019-05-07T00:07:52.826Z,8.43
2019-05-07T00:10:21.806Z,8.41
2019-05-07T00:12:52.013Z,8.43
2019-05-07T00:15:20.277Z,8.41
2019-05-07T00:17:48.876Z,8.40
2019-05-07T00:20:17.189Z,8.41
2019-05-07T00:22:45.524Z,8.41
2019-05-07T00:25:13.989Z,8.41
2019-05-07T00:27:42.761Z,8.40
2019-05-07T00:30:12.615Z,8.39
2019-05-07T00:32:42.390Z,8.39
2019-05-07T00:35:13.136Z,8.37
2019-05-07T00:37:52.358Z,8.34
2019-05-07T00:40:32.137Z,8.32
2019-05-07T00:43:04.798Z,8.28
2019-05-07T00:45:52.734Z,8.26
2019-05-07T00:48:20.598Z,8.25
2019-05-07T00:50:52.680Z,8.23
2019-05-07T00:53:20.621Z,8.25
2019-05-07T00:55:49.240Z,8.23
2019-05-07T00:58:17.529Z,8.24
2019-05-07T01:00:46.115Z,8.22
2019-05-07T01:03:14.871Z,8.20
2019-05-07T01:05:43.396Z,8.20
2019-05-07T01:08:13.201Z,8.18
2019-05-07T01:10:42.066Z,8.16
2019-05-07T01:13:12.642Z,8.13
2019-05-07T01:15:42.767Z,8.09
2019-05-07T01:18:12.342Z,8.08
2019-05-07T01:20:42.275Z,8.08
2019-05-07T01:23:13.227Z,8.09
2019-05-07T01:25:43.040Z,8.05
2019-05-07T01:28:13.260Z,8.02
2019-05-07T01:30:43.213Z,7.99
2019-05-07T01:33:19.590Z,7.96
2019-05-07T01:36:07.820Z,7.98
2019-05-07T01:38:36.130Z,7.98
2019-05-07T01:41:04.595Z,7.98
2019-05-07T01:43:32.905Z,7.98
2019-05-07T01:46:03.148Z,7.95
2019-05-07T01:48:32.372Z,7.93
2019-05-07T01:51:03.175Z,7.92
2019-05-07T01:53:32.322Z,7.94
2019-05-07T01:56:03.052Z,7.94
2019-05-07T01:58:33.145Z,7.93
2019-05-07T02:01:02.780Z,7.91
2019-05-07T02:03:52.682Z,7.87
2019-05-07T02:06:22.543Z,7.84
2019-05-07T02:08:58.429Z,7.81
2019-05-07T02:11:43.715Z,7.79
2019-05-07T02:14:13.674Z,7.74
2019-05-07T02:16:42.016Z,7.70
2019-05-07T02:19:12.507Z,7.65
2019-05-07T02:21:42.272Z,7.63
2019-05-07T02:24:12.440Z,7.58
2019-05-07T02:26:42.537Z,7.53
2019-05-07T02:29:12.225Z,7.47
2019-05-07T02:31:43.763Z,7.41
2019-05-07T02:34:13.778Z,7.34
2019-05-07T02:36:43.294Z,7.29
2019-05-07T02:39:13.107Z,7.24
2019-05-07T02:41:44.093Z,7.20
2019-05-07T02:44:14.095Z,7.18
2019-05-07T02:46:58.686Z,7.13
2019-05-07T02:49:37.621Z,7.12
2019-05-07T02:52:16.550Z,7.08
2019-05-07T02:54:46.509Z,7.03
2019-05-07T02:57:16.999Z,7.02
2019-05-07T02:59:45.179Z,7.00
2019-05-07T03:02:14.041Z,6.98
2019-05-07T03:04:43.627Z,7.01
2019-05-07T03:07:13.153Z,7.04
2019-05-07T03:09:43.122Z,7.02
2019-05-07T03:12:13.165Z,6.98
2019-05-07T03:14:43.808Z,6.92
2019-05-07T03:17:13.263Z,6.83
2019-05-07T03:19:43.555Z,6.76
2019-05-07T03:22:13.994Z,6.70
2019-05-07T03:24:49.122Z,6.63
2019-05-07T03:27:17.745Z,6.59
2019-05-07T03:29:47.692Z,6.55
2019-05-07T03:32:29.499Z,6.52
2019-05-07T03:35:06.026Z,6.48
2019-05-07T03:37:35.249Z,6.45
2019-05-07T03:40:03.789Z,6.44
2019-05-07T03:42:33.503Z,6.43
2019-05-07T03:45:03.958Z,6.45
2019-05-07T03:47:44.051Z,6.42
2019-05-07T03:50:14.616Z,6.41
2019-05-07T03:52:43.313Z,6.41
2019-05-07T03:55:14.596Z,6.42
2019-05-07T03:57:43.575Z,6.43
2019-05-07T04:00:13.535Z,6.44
2019-05-07T04:02:43.814Z,6.50
2019-05-07T04:05:14.042Z,6.57
2019-05-07T04:07:43.036Z,6.61
2019-05-07T04:10:14.603Z,6.67
2019-05-07T04:12:44.076Z,6.74
2019-05-07T04:15:14.528Z,6.83
2019-05-07T04:17:43.130Z,6.91
2019-05-07T04:20:13.490Z,6.99
2019-05-07T04:22:43.117Z,7.06
2019-05-07T04:25:23.948Z,7.15
2019-05-07T04:28:03.983Z,7.24
2019-05-07T04:30:33.278Z,7.34
2019-05-07T04:33:03.653Z,7.42
2019-05-07T04:35:43.035Z,7.45
2019-05-07T04:38:09.851Z,7.47
2019-05-07T04:40:38.146Z,7.51
2019-05-07T04:43:06.694Z,7.53
2019-05-07T04:45:35.159Z,7.57
2019-05-07T04:48:03.482Z,7.62
2019-05-07T04:50:42.758Z,7.67
2019-05-07T04:53:03.787Z,7.71
2019-05-07T04:55:33.489Z,7.78
2019-05-07T04:58:03.418Z,7.85
2019-05-07T05:00:33.586Z,7.89
2019-05-07T05:03:06.389Z,7.91
2019-05-07T05:05:34.860Z,7.93
2019-05-07T05:08:03.867Z,7.93
2019-05-07T05:10:33.658Z,7.94
2019-05-07T05:13:03.146Z,7.96
2019-05-07T05:15:32.245Z,7.98
2019-05-07T05:18:02.693Z,8.00
2019-05-07T05:20:33.643Z,8.03
2019-05-07T05:23:15.694Z,8.12
2019-05-07T05:25:44.067Z,8.19
2019-05-07T05:28:13.388Z,8.27
2019-05-07T05:30:56.761Z,8.33
2019-05-07T05:33:25.073Z,8.39
2019-05-07T05:35:53.420Z,8.44
2019-05-07T05:38:22.289Z,8.46
2019-05-07T05:40:52.133Z,8.49
2019-05-07T05:43:37.390Z,8.53
2019-05-07T05:46:07.424Z,8.57
2019-05-07T05:48:35.734Z,8.63
2019-05-07T05:51:05.793Z,8.70
2019-05-07T05:53:45.018Z,8.78
2019-05-07T05:56:32.265Z,8.85
2019-05-07T05:59:12.140Z,8.92
2019-05-07T06:04:44.801Z,9.05
2019-05-07T06:07:17.780Z,9.09
2019-05-07T06:09:47.729Z,9.17
2019-05-07T06:12:34.169Z,9.21
2019-05-07T06:15:22.085Z,9.26
2019-05-07T06:18:17.662Z,9.33
2019-05-07T06:20:35.087Z,9.40
2019-05-07T06:23:22.514Z,9.57
2019-05-07T06:25:52.303Z,9.74
2019-05-07T06:28:22.376Z,9.88
2019-05-07T06:30:52.691Z,9.90
2019-05-07T06:33:23.014Z,9.84
2019-05-07T06:35:52.036Z,9.81
2019-05-07T06:38:22.034Z,9.78
2019-05-07T06:41:07.728Z,9.73
2019-05-07T06:43:42.173Z,9.68
2019-05-07T06:46:12.540Z,9.69
2019-05-07T06:48:43.720Z,9.71
2019-05-07T06:51:12.598Z,9.74
2019-05-07T06:53:42.216Z,9.81
2019-05-07T06:56:12.228Z,9.87
2019-05-07T06:58:42.473Z,9.91
2019-05-07T07:01:14.878Z,9.92
2019-05-07T07:04:03.279Z,9.92
2019-05-07T07:06:33.490Z,9.93
2019-05-07T07:09:03.447Z,9.98
2019-05-07T07:11:33.426Z,9.91
2019-05-07T07:14:02.614Z,9.92
2019-05-07T07:16:32.597Z,10.02
2019-05-07T07:19:03.150Z,10.15
2019-05-07T07:21:32.702Z,10.36
2019-05-07T07:24:03.040Z,10.53
2019-05-07T07:26:32.790Z,10.72
2019-05-07T07:29:01.993Z,10.93
2019-05-07T07:31:34.869Z,11.10
2019-05-07T07:34:04.572Z,11.23
2019-05-07T07:36:34.501Z,11.33
2019-05-07T07:39:03.387Z,11.40
2019-05-07T07:41:39.331Z,11.53
2019-05-07T07:44:07.909Z,11.68
2019-05-07T07:46:36.590Z,11.77
2019-05-07T07:49:11.089Z,11.81
2019-05-07T07:51:41.521Z,11.86
2019-05-07T07:54:05.396Z,11.91
2019-05-07T07:56:48.981Z,11.90
2019-05-07T07:59:12.840Z,11.95
2019-05-07T08:01:52.470Z,12.04
2019-05-07T08:04:22.882Z,12.07
2019-05-07T08:06:52.538Z,12.15
2019-05-07T08:09:24.016Z,12.21
2019-05-07T08:11:52.715Z,12.29
2019-05-07T08:14:21.985Z,12.34
2019-05-07T08:16:52.771Z,12.38
2019-05-07T08:19:24.393Z,12.53
2019-05-07T08:21:52.124Z,12.67
2019-05-07T08:24:22.547Z,12.78
2019-05-07T08:26:51.891Z,12.82
2019-05-07T08:29:22.361Z,12.75
2019-05-07T08:32:02.315Z,12.68
2019-05-07T08:34:38.610Z,12.63
2019-05-07T08:37:06.908Z,12.54
2019-05-07T08:39:35.260Z,12.53
2019-05-07T08:42:04.116Z,12.51
2019-05-07T08:44:45.880Z,12.48
2019-05-07T08:47:24.967Z,12.49
2019-05-07T08:49:53.279Z,12.43
2019-05-07T08:52:22.345Z,12.32
2019-05-07T08:54:51.901Z,12.31
2019-05-07T08:57:22.562Z,12.28
2019-05-07T08:59:58.495Z,12.25
2019-05-07T09:02:22.206Z,12.26
2019-05-07T09:04:52.338Z,12.38
2019-05-07T09:07:21.853Z,12.49
2019-05-07T09:09:52.373Z,12.40
2019-05-07T09:12:22.711Z,12.36
2019-05-07T09:14:52.702Z,12.46
2019-05-07T09:17:22.763Z,12.60
2019-05-07T09:19:53.991Z,12.78
2019-05-07T09:22:22.892Z,12.89
2019-05-07T09:24:52.584Z,13.07
2019-05-07T09:27:23.039Z,13.20
2019-05-07T09:30:02.701Z,13.29
2019-05-07T09:32:42.517Z,13.41
2019-05-07T09:35:18.790Z,13.54
2019-05-07T09:37:47.112Z,13.55
2019-05-07T09:40:15.596Z,13.62
2019-05-07T09:42:43.904Z,13.59
2019-05-07T09:45:12.559Z,13.63
2019-05-07T09:47:41.803Z,13.61
2019-05-07T09:50:11.855Z,13.68
2019-05-07T09:52:42.525Z,13.62
2019-05-07T09:55:16.367Z,13.48
2019-05-07T09:57:42.459Z,13.32
2019-05-07T10:00:12.337Z,13.20
2019-05-07T10:02:42.531Z,13.33
2019-05-07T10:05:11.651Z,13.50
2019-05-07T10:07:42.201Z,13.63
2019-05-07T10:10:12.009Z,13.92
2019-05-07T10:12:44.969Z,14.01
2019-05-07T10:15:13.837Z,14.00
2019-05-07T10:17:43.852Z,14.10
2019-05-07T10:20:21.539Z,14.25
2019-05-07T10:22:42.959Z,14.10
2019-05-07T10:25:12.171Z,13.97
2019-05-07T10:27:41.889Z,14.15
2019-05-07T10:30:12.632Z,14.35
2019-05-07T10:32:42.112Z,14.47
2019-05-07T10:35:12.804Z,14.56
2019-05-07T10:37:42.331Z,14.45
2019-05-07T10:40:12.248Z,14.20
2019-05-07T10:42:42.818Z,13.89
2019-05-07T10:45:14.501Z,13.81
2019-05-07T10:47:52.013Z,13.83
2019-05-07T10:50:36.463Z,13.65
2019-05-07T10:52:58.014Z,13.64
2019-05-07T10:55:26.345Z,13.72
2019-05-07T10:57:54.702Z,13.64
2019-05-07T11:00:25.209Z,13.51
2019-05-07T11:02:53.505Z,13.51
2019-05-07T11:05:22.069Z,13.54
2019-05-07T11:07:50.388Z,13.72
2019-05-07T11:10:18.799Z,14.02
2019-05-07T11:12:47.100Z,14.30
2019-05-07T11:15:15.792Z,14.39
2019-05-07T11:17:52.215Z,14.42
2019-05-07T11:20:22.505Z,14.29
2019-05-07T11:22:52.213Z,14.30
2019-05-07T11:25:22.551Z,14.26
2019-05-07T11:27:52.422Z,14.33
2019-05-07T11:30:22.853Z,14.45
2019-05-07T11:32:52.208Z,14.53
2019-05-07T11:35:22.979Z,14.74
2019-05-07T11:37:52.029Z,15.04
2019-05-07T11:40:22.935Z,15.24
2019-05-07T11:42:59.195Z,15.43
2019-05-07T11:45:38.051Z,15.51
2019-05-07T11:48:06.372Z,15.55
2019-05-07T11:50:36.610Z,15.75
2019-05-07T11:53:12.347Z,15.94
2019-05-07T11:55:42.084Z,16.13
2019-05-07T11:58:12.642Z,16.35
2019-05-07T12:00:45.921Z,16.42
2019-05-07T12:03:14.581Z,16.43
2019-05-07T12:05:42.889Z,16.22
2019-05-07T12:08:13.068Z,15.90
2019-05-07T12:10:41.238Z,15.80
2019-05-07T12:13:09.840Z,15.81
2019-05-07T12:15:38.568Z,15.84
2019-05-07T12:18:06.854Z,15.88
2019-05-07T12:20:35.232Z,16.01
2019-05-07T12:23:03.537Z,16.14
2019-05-07T12:25:34.270Z,16.24
2019-05-07T12:28:02.610Z,16.11
2019-05-07T12:30:47.390Z,15.85
2019-05-07T12:33:20.289Z,15.51
2019-05-07T12:35:48.621Z,15.07
2019-05-07T12:38:16.951Z,14.75
2019-05-07T12:40:45.364Z,14.50
2019-05-07T12:43:13.684Z,14.31
2019-05-07T12:45:42.198Z,14.28
2019-05-07T12:48:12.180Z,14.12
2019-05-07T12:50:40.536Z,13.84
2019-05-07T12:53:28.768Z,13.78
2019-05-07T12:55:58.712Z,13.82
2019-05-07T12:58:27.546Z,13.86
2019-05-07T13:00:57.488Z,13.97
2019-05-07T13:03:39.519Z,14.08
2019-05-07T13:06:07.888Z,14.23
2019-05-07T13:08:36.191Z,14.36
2019-05-07T13:11:04.675Z,14.39
2019-05-07T13:13:32.968Z,14.46
2019-05-07T13:16:02.905Z,14.55
2019-05-07T13:18:31.915Z,14.76
2019-05-07T13:21:02.205Z,14.95
2019-05-07T13:23:31.844Z,14.96
2019-05-07T13:26:02.362Z,14.98
2019-05-07T13:28:30.822Z,15.05
2019-05-07T13:30:59.422Z,15.14
2019-05-07T13:33:27.922Z,15.16
2019-05-07T13:35:56.235Z,15.27
2019-05-07T13:38:29.305Z,15.35
2019-05-07T13:41:08.180Z,15.46
2019-05-07T13:43:41.029Z,15.50
2019-05-07T13:46:12.091Z,15.54
2019-05-07T13:48:45.494Z,15.53
2019-05-07T13:51:13.023Z,15.45
2019-05-07T13:53:42.798Z,15.40
2019-05-07T13:56:12.845Z,15.32
2019-05-07T13:58:42.846Z,15.22
2019-05-07T14:01:15.615Z,15.04
2019-05-07T14:03:43.988Z,14.90
2019-05-07T14:06:16.530Z,14.75
2019-05-07T14:08:45.114Z,14.59
2019-05-07T14:11:14.344Z,14.55
2019-05-07T14:13:43.631Z,14.53
2019-05-07T14:16:15.231Z,14.56
2019-05-07T14:18:43.608Z,14.61
2019-05-07T14:21:13.037Z,14.84
2019-05-07T14:23:42.758Z,15.02
2019-05-07T14:26:11.245Z,15.18
2019-05-07T14:28:42.158Z,15.34
2019-05-07T14:31:12.150Z,15.45
2019-05-07T14:33:41.640Z,15.46
2019-05-07T14:36:11.982Z,15.45
2019-05-07T14:38:42.645Z,15.52
2019-05-07T14:41:12.996Z,15.49
2019-05-07T14:43:43.246Z,15.55
2019-05-07T14:46:11.997Z,15.61
2019-05-07T14:48:41.910Z,15.65
2019-05-07T14:51:12.677Z,15.69
2019-05-07T14:53:41.849Z,15.65
2019-05-07T14:56:11.843Z,15.66
2019-05-07T14:58:42.261Z,15.68
2019-05-07T15:01:11.765Z,15.68
2019-05-07T15:03:42.247Z,15.70
2019-05-07T15:06:12.472Z,15.63
2019-05-07T15:08:40.362Z,15.43
2019-05-07T15:11:08.734Z,15.25
2019-05-07T15:13:37.127Z,15.13
2019-05-07T15:16:05.768Z,15.15
2019-05-07T15:18:42.470Z,15.29
2019-05-07T15:21:12.335Z,15.38
2019-05-07T15:23:42.479Z,15.43
2019-05-07T15:26:12.839Z,15.37
2019-05-07T15:28:43.010Z,15.35
2019-05-07T15:31:21.986Z,15.37
2019-05-07T15:33:52.162Z,15.30
2019-05-07T15:36:20.354Z,15.24
2019-05-07T15:38:48.657Z,15.13
2019-05-07T15:41:17.043Z,15.05
2019-05-07T15:43:46.256Z,14.99
2019-05-07T15:46:14.734Z,14.96
2019-05-07T15:48:43.025Z,14.98
2019-05-07T15:51:11.974Z,15.02
2019-05-07T15:53:42.767Z,14.98
2019-05-07T15:56:12.442Z,15.01
2019-05-07T15:58:42.588Z,15.10
2019-05-07T16:01:12.817Z,15.14
2019-05-07T16:03:43.373Z,15.07
2019-05-07T16:06:12.666Z,14.93
2019-05-07T16:08:48.753Z,14.80
2019-05-07T16:11:15.456Z,14.68
2019-05-07T16:13:45.416Z,14.60
2019-05-07T16:16:13.712Z,14.55
2019-05-07T16:19:01.770Z,14.51
2019-05-07T16:21:29.695Z,14.49
2019-05-07T16:23:58.247Z,14.45
2019-05-07T16:26:26.642Z,14.43
2019-05-07T16:28:54.945Z,14.43
2019-05-07T16:31:24.696Z,14.36
2019-05-07T16:33:53.215Z,14.38
2019-05-07T16:36:22.030Z,14.42
2019-05-07T16:38:52.512Z,14.44
2019-05-07T16:41:22.303Z,14.45
2019-05-07T16:43:52.468Z,14.39
2019-05-07T16:46:22.423Z,14.33
2019-05-07T16:48:50.836Z,14.28
2019-05-07T16:51:19.262Z,14.22
2019-05-07T16:53:47.613Z,14.18
2019-05-07T16:56:16.276Z,14.18
2019-05-07T16:58:46.209Z,14.16
2019-05-07T17:01:16.001Z,14.13
2019-05-07T17:03:45.960Z,14.11
2019-05-07T17:06:14.615Z,14.09
2019-05-07T17:08:46.984Z,14.09
2019-05-07T17:11:15.517Z,14.12
2019-05-07T17:13:43.817Z,14.13
2019-05-07T17:16:12.529Z,14.14
2019-05-07T17:18:40.842Z,14.11
2019-05-07T17:21:09.135Z,14.11
2019-05-07T17:23:44.024Z,14.11
2019-05-07T17:26:07.542Z,14.09
2019-05-07T17:28:35.837Z,14.05
2019-05-07T17:31:04.426Z,14.03
2019-05-07T17:33:32.725Z,14.03
2019-05-07T17:36:02.431Z,13.99
2019-05-07T17:38:32.251Z,13.97
2019-05-07T17:41:10.904Z,13.95
2019-05-07T17:43:32.480Z,13.92
2019-05-07T17:46:02.789Z,13.87
2019-05-07T17:48:32.296Z,13.80
2019-05-07T17:51:08.680Z,13.70
2019-05-07T17:53:37.467Z,13.59
2019-05-07T17:56:05.786Z,13.49
2019-05-07T17:58:34.091Z,13.39
2019-05-07T18:01:04.053Z,13.30
2019-05-07T18:03:36.531Z,13.23
2019-05-07T18:06:05.185Z,13.21
2019-05-07T18:08:33.875Z,13.18
2019-05-07T18:11:02.615Z,13.15
2019-05-07T18:13:32.653Z,13.08
2019-05-07T18:16:02.983Z,12.99
2019-05-07T18:18:32.783Z,12.89
2019-05-07T18:21:02.219Z,12.81
2019-05-07T18:23:32.135Z,12.72
2019-05-07T18:26:00.771Z,12.63
2019-05-07T18:28:29.934Z,12.56
2019-05-07T18:30:59.129Z,12.48
2019-05-07T18:33:33.634Z,12.40
2019-05-07T18:36:02.830Z,12.32
2019-05-07T18:38:32.873Z,12.23
2019-05-07T18:41:02.712Z,12.17
2019-05-07T18:43:32.963Z,12.08
2019-05-07T18:46:02.350Z,11.99
2019-05-07T18:48:30.889Z,11.91
2019-05-07T18:50:59.198Z,11.85
2019-05-07T18:53:27.553Z,11.79
2019-05-07T18:55:55.889Z,11.73
2019-05-07T18:58:24.488Z,11.66
2019-05-07T19:00:54.438Z,11.57
2019-05-07T19:03:25.234Z,11.51
2019-05-07T19:05:52.779Z,11.45
2019-05-07T19:08:22.957Z,11.39
2019-05-07T19:10:52.281Z,11.32
2019-05-07T19:13:22.160Z,11.28
2019-05-07T19:15:52.737Z,11.21
2019-05-07T19:18:22.803Z,11.14
2019-05-07T19:20:53.009Z,11.07
2019-05-07T19:23:22.350Z,11.00
2019-05-07T19:25:52.330Z,10.94
2019-05-07T19:28:22.484Z,10.86
2019-05-07T19:30:52.810Z,10.81
2019-05-07T19:33:26.176Z,10.73
2019-05-07T19:35:52.750Z,10.70
2019-05-07T19:38:21.386Z,10.64
2019-05-07T19:40:52.654Z,10.61
2019-05-07T19:43:20.529Z,10.60
2019-05-07T19:45:48.826Z,10.60
2019-05-07T19:48:17.554Z,10.58
2019-05-07T19:50:45.958Z,10.55
2019-05-07T19:53:14.272Z,10.51
2019-05-07T19:55:45.511Z,10.46
2019-05-07T19:58:13.834Z,10.43
2019-05-07T20:00:45.298Z,10.38
2019-05-07T20:03:13.143Z,10.35
2019-05-07T20:05:41.987Z,10.31
2019-05-07T20:08:12.047Z,10.24
2019-05-07T20:10:42.297Z,10.17
2019-05-07T20:13:12.476Z,10.11
2019-05-07T20:15:42.674Z,10.03
2019-05-07T20:18:12.448Z,9.96
2019-05-07T20:20:42.416Z,9.91
2019-05-07T20:23:12.012Z,9.85
2019-05-07T20:25:42.023Z,9.80
2019-05-07T20:28:12.722Z,9.75
2019-05-07T20:30:41.813Z,9.67
2019-05-07T20:33:10.178Z,9.62
2019-05-07T20:35:41.309Z,9.57
2019-05-07T20:38:08.786Z,9.52
2019-05-07T20:40:37.471Z,9.47
2019-05-07T20:43:06.035Z,9.44
2019-05-07T20:45:34.377Z,9.39
2019-05-07T20:48:02.698Z,9.37
2019-05-07T20:50:33.109Z,9.34
2019-05-07T20:53:02.032Z,9.34
2019-05-07T20:55:33.964Z,9.27
2019-05-07T20:58:03.203Z,9.20
2019-05-07T21:00:32.688Z,9.13
2019-05-07T21:03:19.817Z,9.08
2019-05-07T21:05:53.303Z,9.01
2019-05-07T21:08:22.796Z,8.91
2019-05-07T21:10:53.486Z,8.86
2019-05-07T21:13:28.500Z,8.84
2019-05-07T21:15:52.632Z,8.80
2019-05-07T21:18:23.223Z,8.74
2019-05-07T21:20:52.937Z,8.74
2019-05-07T21:23:23.035Z,8.69
2019-05-07T21:25:52.851Z,8.64
2019-05-07T21:28:21.475Z,8.57
2019-05-07T21:30:52.133Z,8.51
2019-05-07T21:33:22.589Z,8.48
2019-05-07T21:35:52.368Z,8.48
2019-05-07T21:38:22.335Z,8.46
2019-05-07T21:40:50.920Z,8.44
2019-05-07T21:43:19.227Z,8.42
2019-05-07T21:45:47.537Z,8.38
2019-05-07T21:48:15.846Z,8.34
2019-05-07T21:50:44.148Z,8.28
2019-05-07T21:53:23.127Z,8.25
2019-05-07T21:56:12.365Z,8.22
2019-05-07T21:58:45.628Z,8.16
2019-05-07T22:01:18.566Z,8.12
2019-05-07T22:03:48.541Z,8.11
2019-05-07T22:06:16.922Z,8.05
2019-05-07T22:08:45.221Z,7.99
2019-05-07T22:11:13.540Z,7.92
2019-05-07T22:13:43.539Z,7.90
2019-05-07T22:16:12.972Z,7.84
2019-05-07T22:18:42.655Z,7.81
2019-05-07T22:21:12.532Z,7.75
2019-05-07T22:23:42.757Z,7.72
2019-05-07T22:26:20.221Z,7.68
2019-05-07T22:28:42.025Z,7.61
2019-05-07T22:31:18.364Z,7.55
2019-05-07T22:33:52.651Z,7.54
2019-05-07T22:36:21.987Z,7.53
2019-05-07T22:38:52.479Z,7.51
2019-05-07T22:41:22.393Z,7.49
2019-05-07T22:43:50.890Z,7.45
2019-05-07T22:46:19.193Z,7.42
2019-05-07T22:48:47.757Z,7.38
2019-05-07T22:51:16.052Z,7.37
2019-05-07T22:53:44.363Z,7.36
2019-05-07T22:56:14.112Z,7.32
2019-05-07T22:58:44.208Z,7.31
2019-05-07T23:01:14.141Z,7.25
2019-05-07T23:03:43.073Z,7.21
2019-05-07T23:06:12.261Z,7.19
2019-05-07T23:08:42.418Z,7.17
2019-05-07T23:11:12.278Z,7.16
2019-05-07T23:13:42.671Z,7.14
2019-05-07T23:16:12.509Z,7.15
2019-05-07T23:18:42.836Z,7.10
2019-05-07T23:21:11.514Z,7.06
2019-05-07T23:23:42.016Z,7.02
2019-05-07T23:26:14.314Z,7.01
2019-05-07T23:28:41.882Z,7.04
2019-05-07T23:31:12.058Z,7.05
2019-05-07T23:33:40.313Z,7.05
2019-05-07T23:36:08.618Z,7.04
2019-05-07T23:38:36.919Z,7.01
2019-05-07T23:41:23.133Z,6.96
2019-05-07T23:44:12.551Z,6.93
2019-05-07T23:46:44.387Z,6.95
2019-05-07T23:49:12.426Z,6.98
2019-05-07T23:51:42.123Z,6.98
2019-05-07T23:54:12.212Z,6.95
2019-05-07T23:56:42.752Z,6.88
2019-05-07T23:59:12.775Z,6.86
